MPTOSKSP

Guest
Details From MPTO - Tocumen Intl
To SKSP - GUSTAVO ROJAS PINILLA
Flight Number -
Tags generated
Created
Modified
Stats Distance 256 nm / 474 km
Max Altitude 30,400 ft / 9,266 m
Waypoints 4
Social Downloads 0
Likes 0
Share VATSIM

Download

Looking for another format? Having issues loading an existing format? Contact us
Advertisement - Login to hide

Notes

Basic altitude profile: - Ascent Rate: 2500ft/min - Ascent Speed: 250kts - Cruise Altitude: 35000ft - Cruise Speed: 420kts - Descent Rate: 1500ft/min - Descent Speed: 250kts Options: - Use NATs: yes - Use PACOTS: yes - Use low airways: yes - Use high airways: yes

Route

MPTO SEKMA UG447 SPP SKSP

ID Type Via Altitude Latitude Longitude Leg Dist Tot Dist Heading (true) Name
O MPTO APT - 0 ft / 0 m 9.07136˚ -79.38346˚ - 0 nm - Tocumen Intl
SEKMA FIX - 30,400 ft / 9,266 m 10.41956˚ -79.84064˚ 85 nm 85 nm 342° / 341° -
SPP VOR UG447 (AWY-HI) 18,500 ft / 5,639 m 12.58250˚ -81.70500˚ 170 nm 255 nm 320° / 320° SAN ANDRES VOR-DME
O SKSP APT - 0 ft / 0 m 12.58359˚ -81.71119˚ 0 nm 255 nm 280° / 280° GUSTAVO ROJAS PINILLA

Altitude Profile

Advertisement - Login to hide

Weather


0- 5 10 15 20 25 30 35+ Temperature / ° C

Clouds and Precipitation
Forecast for 2018-05-24 12:00 UTC. Updated 3 hours ago

Ground ~20,000 ft ~40,000 ft Winds

MPTO

Details ICAO MPTO (PTY)
Name Tocumen Intl
Region Panama
Timezone America/Panama (UTC-5.0)
Stats Elevation 135 ft / 41 m (AMSL)
Location 9.071364° -79.383458°
Runways 2
Magnetic Variation 4.594° W

METAR

MPTO 241400Z 08004KT 9000 FEW008 SCT016CB BKN080 28/25 Q1012 NOSIG

Decode

TAF

TAF MPTO 241100Z 2412/2518 29006KT 9999 SCT018 SCT090 TEMPO 2412/2416 07003KT TEMPO 2416/2421 18008KT 4000 TSRA SCT014CB BKN080 BECMG 2422/2502 NSW TEMPO 2504/2508 05003KT

Decode

Departure Runways

ID Width Length Bearing (true) Bearing (mag) Surface Threshold Offset Overrun Length
03L 200 ft / 61 m 8,798 ft / 2,682 m 30.67° 35.26° Asphalt 0 ft / 0 m 0 ft / 0 m
03R 148 ft / 45 m 10,008 ft / 3,051 m 29.33° 33.92° Concrete 0 ft / 0 m 198 ft / 60 m
21L 148 ft / 45 m 10,008 ft / 3,051 m 209.33° 213.92° Concrete 0 ft / 0 m 198 ft / 60 m
21R 200 ft / 61 m 8,798 ft / 2,682 m 210.67° 215.26° Asphalt 0 ft / 0 m 0 ft / 0 m

SKSP

Details ICAO SKSP (ADZ)
Name GUSTAVO ROJAS PINILLA
Region Colombia
Timezone Unknown (UTC+0.0)
Stats Elevation 19 ft / 6 m (AMSL)
Location 12.583595° -81.711191°
Runways 1
Magnetic Variation 3.739° W

METAR

SKSP 241400Z 09006KT 050V120 9999 FEW018 BKN200 29/26 A2988

Decode

TAF

Not found

Destination Runways

ID Width Length Bearing (true) Bearing (mag) Surface Threshold Offset Overrun Length
06 148 ft / 45 m 7,815 ft / 2,382 m 59.54° 63.28° Asphalt 0 ft / 0 m 0 ft / 0 m
24 148 ft / 45 m 7,815 ft / 2,382 m 239.55° 243.29° Asphalt 0 ft / 0 m 180 ft / 55 m

Popular Alternatives